sensor_id;sensor_type;location;lat;lon;timestamp;temperature;humidity
76787;DHT22;65739;51.482;5.702;2023-04-19T00:01:15;10.60;99.90
76787;DHT22;65739;51.482;5.702;2023-04-19T00:03:40;10.70;99.90
76787;DHT22;65739;51.482;5.702;2023-04-19T00:06:06;10.70;99.90
76787;DHT22;65739;51.482;5.702;2023-04-19T00:08:33;10.70;99.90
76787;DHT22;65739;51.482;5.702;2023-04-19T00:10:58;10.70;99.90
76787;DHT22;65739;51.482;5.702;2023-04-19T00:13:24;10.70;99.90
76787;DHT22;65739;51.482;5.702;2023-04-19T00:15:49;10.70;99.90
76787;DHT22;65739;51.482;5.702;2023-04-19T00:18:15;10.70;99.90
76787;DHT22;65739;51.482;5.702;2023-04-19T00:20:40;10.70;99.90
76787;DHT22;65739;51.482;5.702;2023-04-19T00:23:06;10.80;99.90
76787;DHT22;65739;51.482;5.702;2023-04-19T00:25:31;10.70;99.90
76787;DHT22;65739;51.482;5.702;2023-04-19T00:27:59;10.70;99.90
76787;DHT22;65739;51.482;5.702;2023-04-19T00:30:24;10.80;99.90
76787;DHT22;65739;51.482;5.702;2023-04-19T00:32:50;10.80;99.90
76787;DHT22;65739;51.482;5.702;2023-04-19T00:35:15;10.80;99.90
76787;DHT22;65739;51.482;5.702;2023-04-19T00:37:41;10.80;99.90
76787;DHT22;65739;51.482;5.702;2023-04-19T00:40:07;10.70;99.90
76787;DHT22;65739;51.482;5.702;2023-04-19T00:42:33;10.70;99.90
76787;DHT22;65739;51.482;5.702;2023-04-19T00:44:58;10.70;99.90
76787;DHT22;65739;51.482;5.702;2023-04-19T00:47:24;10.70;99.90
76787;DHT22;65739;51.482;5.702;2023-04-19T00:49:49;10.70;99.90
76787;DHT22;65739;51.482;5.702;2023-04-19T00:52:15;10.70;99.90
76787;DHT22;65739;51.482;5.702;2023-04-19T00:54:42;10.60;99.90
76787;DHT22;65739;51.482;5.702;2023-04-19T00:57:09;10.70;99.90
76787;DHT22;65739;51.482;5.702;2023-04-19T00:59:35;10.70;99.90
76787;DHT22;65739;51.482;5.702;2023-04-19T01:02:01;10.70;99.90
76787;DHT22;65739;51.482;5.702;2023-04-19T01:04:26;10.70;99.90
76787;DHT22;65739;51.482;5.702;2023-04-19T01:06:52;10.70;99.90
76787;DHT22;65739;51.482;5.702;2023-04-19T01:09:18;10.70;99.90
76787;DHT22;65739;51.482;5.702;2023-04-19T01:11:43;10.70;99.90
76787;DHT22;65739;51.482;5.702;2023-04-19T01:14:09;10.70;99.90
76787;DHT22;65739;51.482;5.702;2023-04-19T01:16:35;10.70;99.90
76787;DHT22;65739;51.482;5.702;2023-04-19T01:19:01;10.70;99.90
76787;DHT22;65739;51.482;5.702;2023-04-19T01:21:26;10.70;99.90
76787;DHT22;65739;51.482;5.702;2023-04-19T01:23:53;10.70;99.90
76787;DHT22;65739;51.482;5.702;2023-04-19T01:26:19;10.70;99.90
76787;DHT22;65739;51.482;5.702;2023-04-19T01:28:45;10.60;99.90
76787;DHT22;65739;51.482;5.702;2023-04-19T01:31:10;10.60;99.90
76787;DHT22;65739;51.482;5.702;2023-04-19T01:33:36;10.60;99.90
76787;DHT22;65739;51.482;5.702;2023-04-19T01:36:02;10.60;99.90
76787;DHT22;65739;51.482;5.702;2023-04-19T01:38:27;10.60;99.90
76787;DHT22;65739;51.482;5.702;2023-04-19T01:40:53;10.60;99.90
76787;DHT22;65739;51.482;5.702;2023-04-19T01:43:21;10.60;99.90
76787;DHT22;65739;51.482;5.702;2023-04-19T01:45:46;10.70;99.90
76787;DHT22;65739;51.482;5.702;2023-04-19T01:48:12;10.60;99.90
76787;DHT22;65739;51.482;5.702;2023-04-19T01:50:37;10.60;99.90
76787;DHT22;65739;51.482;5.702;2023-04-19T01:53:03;10.60;99.90
76787;DHT22;65739;51.482;5.702;2023-04-19T01:55:28;10.60;99.90
76787;DHT22;65739;51.482;5.702;2023-04-19T01:57:54;10.60;99.90
76787;DHT22;65739;51.482;5.702;2023-04-19T02:00:20;10.60;99.90
76787;DHT22;65739;51.482;5.702;2023-04-19T02:02:46;10.70;99.90
76787;DHT22;65739;51.482;5.702;2023-04-19T02:05:12;10.70;99.90
76787;DHT22;65739;51.482;5.702;2023-04-19T02:07:37;10.70;99.90
76787;DHT22;65739;51.482;5.702;2023-04-19T02:10:04;10.70;99.90
76787;DHT22;65739;51.482;5.702;2023-04-19T02:12:31;10.70;99.90
76787;DHT22;65739;51.482;5.702;2023-04-19T02:14:58;10.70;99.90
76787;DHT22;65739;51.482;5.702;2023-04-19T02:17:24;10.70;99.90
76787;DHT22;65739;51.482;5.702;2023-04-19T02:19:50;10.70;99.90
76787;DHT22;65739;51.482;5.702;2023-04-19T02:22:16;10.70;99.90
76787;DHT22;65739;51.482;5.702;2023-04-19T02:24:42;10.70;99.90
76787;DHT22;65739;51.482;5.702;2023-04-19T02:27:07;10.80;99.90
76787;DHT22;65739;51.482;5.702;2023-04-19T02:29:33;10.80;99.90
76787;DHT22;65739;51.482;5.702;2023-04-19T02:31:59;10.80;99.90
76787;DHT22;65739;51.482;5.702;2023-04-19T02:34:26;10.80;99.90
76787;DHT22;65739;51.482;5.702;2023-04-19T02:36:52;10.80;99.90
76787;DHT22;65739;51.482;5.702;2023-04-19T02:39:17;10.80;99.90
76787;DHT22;65739;51.482;5.702;2023-04-19T02:41:43;10.80;99.90
76787;DHT22;65739;51.482;5.702;2023-04-19T02:44:08;10.80;99.90
76787;DHT22;65739;51.482;5.702;2023-04-19T02:46:34;10.90;99.90
76787;DHT22;65739;51.482;5.702;2023-04-19T02:49:00;10.90;99.90
76787;DHT22;65739;51.482;5.702;2023-04-19T02:51:26;10.90;99.90
76787;DHT22;65739;51.482;5.702;2023-04-19T02:53:52;10.90;99.90
76787;DHT22;65739;51.482;5.702;2023-04-19T02:56:17;10.90;99.90
76787;DHT22;65739;51.482;5.702;2023-04-19T02:58:43;10.90;99.90
76787;DHT22;65739;51.482;5.702;2023-04-19T03:01:09;10.90;99.90
76787;DHT22;65739;51.482;5.702;2023-04-19T03:03:34;10.90;99.90
76787;DHT22;65739;51.482;5.702;2023-04-19T03:06:01;10.90;99.90
76787;DHT22;65739;51.482;5.702;2023-04-19T03:08:27;10.90;99.90
76787;DHT22;65739;51.482;5.702;2023-04-19T03:10:53;10.90;99.90
76787;DHT22;65739;51.482;5.702;2023-04-19T03:13:18;10.90;99.90
76787;DHT22;65739;51.482;5.702;2023-04-19T03:15:44;10.90;99.90
76787;DHT22;65739;51.482;5.702;2023-04-19T03:18:09;10.90;99.90
76787;DHT22;65739;51.482;5.702;2023-04-19T03:20:35;10.90;99.90
76787;DHT22;65739;51.482;5.702;2023-04-19T03:23:00;10.80;99.90
76787;DHT22;65739;51.482;5.702;2023-04-19T03:25:26;10.80;99.90
76787;DHT22;65739;51.482;5.702;2023-04-19T03:27:52;10.80;99.90
76787;DHT22;65739;51.482;5.702;2023-04-19T03:30:17;10.80;99.90
76787;DHT22;65739;51.482;5.702;2023-04-19T03:32:43;10.80;99.90
76787;DHT22;65739;51.482;5.702;2023-04-19T03:35:09;10.80;99.90
76787;DHT22;65739;51.482;5.702;2023-04-19T03:37:34;10.90;99.90
76787;DHT22;65739;51.482;5.702;2023-04-19T03:40:00;10.80;99.90
76787;DHT22;65739;51.482;5.702;2023-04-19T03:42:26;10.80;99.90
76787;DHT22;65739;51.482;5.702;2023-04-19T03:44:51;10.80;99.90
76787;DHT22;65739;51.482;5.702;2023-04-19T03:47:17;10.80;99.90
76787;DHT22;65739;51.482;5.702;2023-04-19T03:49:42;10.80;99.90
76787;DHT22;65739;51.482;5.702;2023-04-19T03:52:08;10.80;99.90
76787;DHT22;65739;51.482;5.702;2023-04-19T03:54:33;10.70;99.90
76787;DHT22;65739;51.482;5.702;2023-04-19T03:56:59;10.70;99.90
76787;DHT22;65739;51.482;5.702;2023-04-19T03:59:25;10.70;99.90
76787;DHT22;65739;51.482;5.702;2023-04-19T04:01:50;10.60;99.90
76787;DHT22;65739;51.482;5.702;2023-04-19T04:04:16;10.60;99.90
76787;DHT22;65739;51.482;5.702;2023-04-19T04:06:41;10.60;99.90
76787;DHT22;65739;51.482;5.702;2023-04-19T04:09:07;10.50;99.90
76787;DHT22;65739;51.482;5.702;2023-04-19T04:11:32;10.50;99.90
76787;DHT22;65739;51.482;5.702;2023-04-19T04:13:58;10.40;99.90
76787;DHT22;65739;51.482;5.702;2023-04-19T04:16:23;10.40;99.90
76787;DHT22;65739;51.482;5.702;2023-04-19T04:18:49;10.40;99.90
76787;DHT22;65739;51.482;5.702;2023-04-19T04:21:14;10.40;99.90
76787;DHT22;65739;51.482;5.702;2023-04-19T04:23:40;10.40;99.90
76787;DHT22;65739;51.482;5.702;2023-04-19T04:26:06;10.30;99.90
76787;DHT22;65739;51.482;5.702;2023-04-19T04:28:34;10.40;99.90
76787;DHT22;65739;51.482;5.702;2023-04-19T04:31:00;10.30;99.90
76787;DHT22;65739;51.482;5.702;2023-04-19T04:33:27;10.30;99.90
76787;DHT22;65739;51.482;5.702;2023-04-19T04:35:53;10.30;99.90
76787;DHT22;65739;51.482;5.702;2023-04-19T04:38:19;10.30;99.90
76787;DHT22;65739;51.482;5.702;2023-04-19T04:40:52;10.20;99.90
76787;DHT22;65739;51.482;5.702;2023-04-19T04:43:23;10.20;99.90
76787;DHT22;65739;51.482;5.702;2023-04-19T04:45:49;10.20;99.90
76787;DHT22;65739;51.482;5.702;2023-04-19T04:48:14;10.20;99.90
76787;DHT22;65739;51.482;5.702;2023-04-19T04:50:40;10.10;99.90
76787;DHT22;65739;51.482;5.702;2023-04-19T04:53:06;10.10;99.90
76787;DHT22;65739;51.482;5.702;2023-04-19T04:55:33;10.10;99.90
76787;DHT22;65739;51.482;5.702;2023-04-19T04:57:59;10.00;99.90
76787;DHT22;65739;51.482;5.702;2023-04-19T05:00:25;9.90;99.90
76787;DHT22;65739;51.482;5.702;2023-04-19T05:02:50;9.80;99.90
76787;DHT22;65739;51.482;5.702;2023-04-19T05:05:16;9.70;99.90
76787;DHT22;65739;51.482;5.702;2023-04-19T05:07:41;9.60;99.90
76787;DHT22;65739;51.482;5.702;2023-04-19T05:10:08;9.50;99.90
76787;DHT22;65739;51.482;5.702;2023-04-19T05:12:33;9.60;99.90
76787;DHT22;65739;51.482;5.702;2023-04-19T05:14:59;9.50;99.90
76787;DHT22;65739;51.482;5.702;2023-04-19T05:17:25;9.40;99.90
76787;DHT22;65739;51.482;5.702;2023-04-19T05:19:50;9.40;99.90
76787;DHT22;65739;51.482;5.702;2023-04-19T05:22:16;9.40;99.90
76787;DHT22;65739;51.482;5.702;2023-04-19T05:24:41;9.40;99.90
76787;DHT22;65739;51.482;5.702;2023-04-19T05:27:07;9.40;99.90
76787;DHT22;65739;51.482;5.702;2023-04-19T05:29:33;9.40;99.90
76787;DHT22;65739;51.482;5.702;2023-04-19T05:31:59;9.40;99.90
76787;DHT22;65739;51.482;5.702;2023-04-19T05:34:24;9.40;99.90
76787;DHT22;65739;51.482;5.702;2023-04-19T05:36:50;9.30;99.90
76787;DHT22;65739;51.482;5.702;2023-04-19T05:39:15;9.30;99.90
76787;DHT22;65739;51.482;5.702;2023-04-19T05:41:41;9.30;99.90
76787;DHT22;65739;51.482;5.702;2023-04-19T05:44:07;9.30;99.90
76787;DHT22;65739;51.482;5.702;2023-04-19T05:46:59;9.30;99.90
76787;DHT22;65739;51.482;5.702;2023-04-19T05:49:24;9.30;99.90
76787;DHT22;65739;51.482;5.702;2023-04-19T05:51:50;9.30;99.90
76787;DHT22;65739;51.482;5.702;2023-04-19T05:54:16;9.40;99.90
76787;DHT22;65739;51.482;5.702;2023-04-19T05:56:41;9.50;99.90
76787;DHT22;65739;51.482;5.702;2023-04-19T05:59:07;9.50;99.90
76787;DHT22;65739;51.482;5.702;2023-04-19T06:01:32;9.60;99.90
76787;DHT22;65739;51.482;5.702;2023-04-19T06:03:59;9.70;99.90
76787;DHT22;65739;51.482;5.702;2023-04-19T06:06:25;9.80;99.90
76787;DHT22;65739;51.482;5.702;2023-04-19T06:08:50;10.00;99.90
76787;DHT22;65739;51.482;5.702;2023-04-19T06:11:16;10.10;99.90
76787;DHT22;65739;51.482;5.702;2023-04-19T06:13:41;10.10;99.90
76787;DHT22;65739;51.482;5.702;2023-04-19T06:16:09;10.30;99.90
76787;DHT22;65739;51.482;5.702;2023-04-19T06:18:34;10.40;99.90
76787;DHT22;65739;51.482;5.702;2023-04-19T06:21:00;10.50;99.90
76787;DHT22;65739;51.482;5.702;2023-04-19T06:23:25;10.60;99.90
76787;DHT22;65739;51.482;5.702;2023-04-19T06:25:51;10.60;99.90
76787;DHT22;65739;51.482;5.702;2023-04-19T06:28:17;10.60;99.90
76787;DHT22;65739;51.482;5.702;2023-04-19T06:30:43;10.70;99.90
76787;DHT22;65739;51.482;5.702;2023-04-19T06:33:08;10.70;99.90
76787;DHT22;65739;51.482;5.702;2023-04-19T06:35:34;10.80;99.90
76787;DHT22;65739;51.482;5.702;2023-04-19T06:37:59;10.90;99.90
76787;DHT22;65739;51.482;5.702;2023-04-19T06:40:25;10.90;99.90
76787;DHT22;65739;51.482;5.702;2023-04-19T06:42:53;11.00;99.90
76787;DHT22;65739;51.482;5.702;2023-04-19T06:45:18;11.00;99.90
76787;DHT22;65739;51.482;5.702;2023-04-19T06:47:44;10.90;99.90
76787;DHT22;65739;51.482;5.702;2023-04-19T06:50:10;11.10;99.90
76787;DHT22;65739;51.482;5.702;2023-04-19T06:52:35;11.20;99.90
76787;DHT22;65739;51.482;5.702;2023-04-19T06:55:01;11.20;99.90
76787;DHT22;65739;51.482;5.702;2023-04-19T06:57:29;11.20;99.90
76787;DHT22;65739;51.482;5.702;2023-04-19T06:59:54;11.30;99.90
76787;DHT22;65739;51.482;5.702;2023-04-19T07:02:20;11.40;99.90
76787;DHT22;65739;51.482;5.702;2023-04-19T07:04:46;11.40;99.90
76787;DHT22;65739;51.482;5.702;2023-04-19T07:07:12;11.40;99.90
76787;DHT22;65739;51.482;5.702;2023-04-19T07:09:37;11.50;99.90
76787;DHT22;65739;51.482;5.702;2023-04-19T07:12:04;11.40;99.90
76787;DHT22;65739;51.482;5.702;2023-04-19T07:14:30;11.50;99.90
76787;DHT22;65739;51.482;5.702;2023-04-19T07:16:55;11.40;99.90
76787;DHT22;65739;51.482;5.702;2023-04-19T07:19:21;11.60;99.90
76787;DHT22;65739;51.482;5.702;2023-04-19T07:21:47;11.60;99.90
76787;DHT22;65739;51.482;5.702;2023-04-19T07:24:12;11.60;99.90
76787;DHT22;65739;51.482;5.702;2023-04-19T07:26:38;11.60;99.90
76787;DHT22;65739;51.482;5.702;2023-04-19T07:29:03;11.80;99.90
76787;DHT22;65739;51.482;5.702;2023-04-19T07:31:29;11.80;99.90
76787;DHT22;65739;51.482;5.702;2023-04-19T07:33:55;11.70;99.90
76787;DHT22;65739;51.482;5.702;2023-04-19T07:36:20;11.90;99.90
76787;DHT22;65739;51.482;5.702;2023-04-19T07:38:46;12.00;99.90
76787;DHT22;65739;51.482;5.702;2023-04-19T07:41:11;12.10;99.90
76787;DHT22;65739;51.482;5.702;2023-04-19T07:43:37;12.00;99.90
76787;DHT22;65739;51.482;5.702;2023-04-19T07:46:10;12.10;99.90
76787;DHT22;65739;51.482;5.702;2023-04-19T07:48:36;12.20;99.90
76787;DHT22;65739;51.482;5.702;2023-04-19T07:51:13;12.30;99.90
76787;DHT22;65739;51.482;5.702;2023-04-19T07:53:39;12.40;99.90
76787;DHT22;65739;51.482;5.702;2023-04-19T07:56:06;12.30;99.90
76787;DHT22;65739;51.482;5.702;2023-04-19T07:58:32;12.40;99.90
76787;DHT22;65739;51.482;5.702;2023-04-19T08:00:58;12.50;99.90
76787;DHT22;65739;51.482;5.702;2023-04-19T08:03:23;12.70;99.90
76787;DHT22;65739;51.482;5.702;2023-04-19T08:05:49;12.80;99.90
76787;DHT22;65739;51.482;5.702;2023-04-19T08:08:15;13.10;99.90
76787;DHT22;65739;51.482;5.702;2023-04-19T08:10:40;13.10;99.90
76787;DHT22;65739;51.482;5.702;2023-04-19T08:13:06;13.20;99.90
76787;DHT22;65739;51.482;5.702;2023-04-19T08:15:33;13.30;99.90
76787;DHT22;65739;51.482;5.702;2023-04-19T08:17:58;13.50;99.90
76787;DHT22;65739;51.482;5.702;2023-04-19T08:20:24;13.70;99.90
76787;DHT22;65739;51.482;5.702;2023-04-19T08:22:50;13.70;99.90
76787;DHT22;65739;51.482;5.702;2023-04-19T08:25:15;13.60;99.90
76787;DHT22;65739;51.482;5.702;2023-04-19T08:27:41;13.60;99.90
76787;DHT22;65739;51.482;5.702;2023-04-19T08:30:07;13.60;99.90
76787;DHT22;65739;51.482;5.702;2023-04-19T08:32:33;13.80;99.90
76787;DHT22;65739;51.482;5.702;2023-04-19T08:34:59;14.00;99.90
76787;DHT22;65739;51.482;5.702;2023-04-19T08:37:25;14.20;99.90
76787;DHT22;65739;51.482;5.702;2023-04-19T08:39:51;14.30;99.90
76787;DHT22;65739;51.482;5.702;2023-04-19T08:42:18;14.20;99.90
76787;DHT22;65739;51.482;5.702;2023-04-19T08:44:44;14.30;99.90
76787;DHT22;65739;51.482;5.702;2023-04-19T08:47:10;14.30;99.90
76787;DHT22;65739;51.482;5.702;2023-04-19T08:49:38;14.40;99.90
76787;DHT22;65739;51.482;5.702;2023-04-19T08:52:05;14.60;99.90
76787;DHT22;65739;51.482;5.702;2023-04-19T08:54:31;14.70;99.90
76787;DHT22;65739;51.482;5.702;2023-04-19T08:56:59;14.80;99.90
76787;DHT22;65739;51.482;5.702;2023-04-19T08:59:26;15.00;99.90
76787;DHT22;65739;51.482;5.702;2023-04-19T09:01:53;15.10;99.90
76787;DHT22;65739;51.482;5.702;2023-04-19T09:04:20;15.00;99.90
76787;DHT22;65739;51.482;5.702;2023-04-19T09:06:46;15.20;99.90
76787;DHT22;65739;51.482;5.702;2023-04-19T09:09:19;15.20;99.90
76787;DHT22;65739;51.482;5.702;2023-04-19T09:11:45;15.00;99.90
76787;DHT22;65739;51.482;5.702;2023-04-19T09:14:12;15.00;99.90
76787;DHT22;65739;51.482;5.702;2023-04-19T09:16:38;14.90;99.90
76787;DHT22;65739;51.482;5.702;2023-04-19T09:19:04;14.80;99.90
76787;DHT22;65739;51.482;5.702;2023-04-19T09:21:31;14.70;99.90
76787;DHT22;65739;51.482;5.702;2023-04-19T09:23:58;14.80;99.90
76787;DHT22;65739;51.482;5.702;2023-04-19T09:26:24;14.90;99.90
76787;DHT22;65739;51.482;5.702;2023-04-19T09:29:05;15.20;99.90
76787;DHT22;65739;51.482;5.702;2023-04-19T09:31:32;15.30;99.90
76787;DHT22;65739;51.482;5.702;2023-04-19T09:34:20;15.40;99.90
76787;DHT22;65739;51.482;5.702;2023-04-19T09:36:46;15.60;99.90
76787;DHT22;65739;51.482;5.702;2023-04-19T09:39:13;15.30;99.90
76787;DHT22;65739;51.482;5.702;2023-04-19T09:41:52;15.30;99.90
76787;DHT22;65739;51.482;5.702;2023-04-19T09:44:19;15.40;99.90
76787;DHT22;65739;51.482;5.702;2023-04-19T09:46:44;15.60;99.90
76787;DHT22;65739;51.482;5.702;2023-04-19T09:51:42;15.60;99.90
76787;DHT22;65739;51.482;5.702;2023-04-19T09:54:09;15.20;99.90
76787;DHT22;65739;51.482;5.702;2023-04-19T09:56:35;15.50;99.90
76787;DHT22;65739;51.482;5.702;2023-04-19T09:59:05;15.20;99.90
76787;DHT22;65739;51.482;5.702;2023-04-19T10:01:54;15.10;99.90
76787;DHT22;65739;51.482;5.702;2023-04-19T10:04:21;15.30;99.90
76787;DHT22;65739;51.482;5.702;2023-04-19T10:06:51;15.50;99.90
76787;DHT22;65739;51.482;5.702;2023-04-19T10:09:21;15.40;99.90
76787;DHT22;65739;51.482;5.702;2023-04-19T10:11:48;15.70;99.90
76787;DHT22;65739;51.482;5.702;2023-04-19T10:14:15;15.70;99.90
76787;DHT22;65739;51.482;5.702;2023-04-19T10:16:40;16.00;99.90
76787;DHT22;65739;51.482;5.702;2023-04-19T10:19:11;16.00;99.90
76787;DHT22;65739;51.482;5.702;2023-04-19T10:21:37;16.00;99.90
76787;DHT22;65739;51.482;5.702;2023-04-19T10:24:04;16.30;99.90
76787;DHT22;65739;51.482;5.702;2023-04-19T10:29:54;16.30;99.90
76787;DHT22;65739;51.482;5.702;2023-04-19T10:32:20;16.40;99.90
76787;DHT22;65739;51.482;5.702;2023-04-19T10:34:45;16.50;99.20
76787;DHT22;65739;51.482;5.702;2023-04-19T10:37:15;16.40;99.30
76787;DHT22;65739;51.482;5.702;2023-04-19T10:39:42;16.30;99.40
76787;DHT22;65739;51.482;5.702;2023-04-19T10:42:08;16.30;99.40
76787;DHT22;65739;51.482;5.702;2023-04-19T10:44:34;16.50;97.80
76787;DHT22;65739;51.482;5.702;2023-04-19T10:46:59;16.10;97.10
76787;DHT22;65739;51.482;5.702;2023-04-19T10:49:27;16.00;97.50
76787;DHT22;65739;51.482;5.702;2023-04-19T10:51:53;16.20;97.80
76787;DHT22;65739;51.482;5.702;2023-04-19T10:54:30;16.30;97.30
76787;DHT22;65739;51.482;5.702;2023-04-19T10:57:01;16.40;96.90
76787;DHT22;65739;51.482;5.702;2023-04-19T10:59:34;16.70;98.10
76787;DHT22;65739;51.482;5.702;2023-04-19T11:02:02;16.60;97.00
76787;DHT22;65739;51.482;5.702;2023-04-19T11:09:39;17.10;96.30
76787;DHT22;65739;51.482;5.702;2023-04-19T11:12:19;17.00;97.20
76787;DHT22;65739;51.482;5.702;2023-04-19T11:17:20;16.80;97.30
76787;DHT22;65739;51.482;5.702;2023-04-19T11:20:05;16.40;97.30
76787;DHT22;65739;51.482;5.702;2023-04-19T11:22:45;16.20;97.40
76787;DHT22;65739;51.482;5.702;2023-04-19T11:25:16;16.20;97.30
76787;DHT22;65739;51.482;5.702;2023-04-19T11:27:44;16.40;97.80
76787;DHT22;65739;51.482;5.702;2023-04-19T11:30:19;16.50;97.50
76787;DHT22;65739;51.482;5.702;2023-04-19T11:32:56;16.70;97.80
76787;DHT22;65739;51.482;5.702;2023-04-19T11:35:27;16.70;96.80
76787;DHT22;65739;51.482;5.702;2023-04-19T11:37:53;16.50;97.40
76787;DHT22;65739;51.482;5.702;2023-04-19T11:40:20;16.70;96.50
76787;DHT22;65739;51.482;5.702;2023-04-19T11:42:47;16.90;96.50
76787;DHT22;65739;51.482;5.702;2023-04-19T11:45:25;17.20;97.30
76787;DHT22;65739;51.482;5.702;2023-04-19T11:47:51;17.00;97.00
76787;DHT22;65739;51.482;5.702;2023-04-19T11:50:31;17.10;96.20
76787;DHT22;65739;51.482;5.702;2023-04-19T11:52:58;17.30;96.50
76787;DHT22;65739;51.482;5.702;2023-04-19T11:55:24;17.40;96.60
76787;DHT22;65739;51.482;5.702;2023-04-19T11:57:49;17.60;95.50
76787;DHT22;65739;51.482;5.702;2023-04-19T12:00:15;17.70;95.20
76787;DHT22;65739;51.482;5.702;2023-04-19T12:02:50;17.50;93.70
76787;DHT22;65739;51.482;5.702;2023-04-19T12:05:16;17.60;94.60
76787;DHT22;65739;51.482;5.702;2023-04-19T12:08:01;17.70;93.90
76787;DHT22;65739;51.482;5.702;2023-04-19T12:10:28;17.80;95.30
76787;DHT22;65739;51.482;5.702;2023-04-19T12:12:55;17.80;93.70
76787;DHT22;65739;51.482;5.702;2023-04-19T12:15:20;17.50;94.10
76787;DHT22;65739;51.482;5.702;2023-04-19T12:17:57;17.50;93.40
76787;DHT22;65739;51.482;5.702;2023-04-19T12:20:32;17.60;93.00
76787;DHT22;65739;51.482;5.702;2023-04-19T12:22:58;18.00;94.10
76787;DHT22;65739;51.482;5.702;2023-04-19T12:25:31;18.10;92.20
76787;DHT22;65739;51.482;5.702;2023-04-19T12:27:57;17.90;92.40
76787;DHT22;65739;51.482;5.702;2023-04-19T12:30:23;18.00;92.60
76787;DHT22;65739;51.482;5.702;2023-04-19T12:32:49;17.70;91.70
76787;DHT22;65739;51.482;5.702;2023-04-19T12:35:16;17.70;91.50
76787;DHT22;65739;51.482;5.702;2023-04-19T12:37:48;17.70;91.90
76787;DHT22;65739;51.482;5.702;2023-04-19T12:40:17;18.00;93.30
76787;DHT22;65739;51.482;5.702;2023-04-19T12:42:42;18.30;93.20
76787;DHT22;65739;51.482;5.702;2023-04-19T12:45:09;18.30;92.00
76787;DHT22;65739;51.482;5.702;2023-04-19T12:47:34;18.10;92.10
76787;DHT22;65739;51.482;5.702;2023-04-19T12:50:03;17.80;92.30
76787;DHT22;65739;51.482;5.702;2023-04-19T12:52:28;17.60;91.90
76787;DHT22;65739;51.482;5.702;2023-04-19T12:54:54;18.10;92.00
76787;DHT22;65739;51.482;5.702;2023-04-19T12:57:19;18.40;91.30
76787;DHT22;65739;51.482;5.702;2023-04-19T12:59:45;18.50;91.30
76787;DHT22;65739;51.482;5.702;2023-04-19T13:02:10;18.60;91.30
76787;DHT22;65739;51.482;5.702;2023-04-19T13:04:36;18.40;88.40
76787;DHT22;65739;51.482;5.702;2023-04-19T13:07:01;18.50;90.00
76787;DHT22;65739;51.482;5.702;2023-04-19T13:09:27;18.20;88.80
76787;DHT22;65739;51.482;5.702;2023-04-19T13:11:57;18.40;89.60
76787;DHT22;65739;51.482;5.702;2023-04-19T13:14:24;18.20;87.30
76787;DHT22;65739;51.482;5.702;2023-04-19T13:16:50;18.40;87.30
76787;DHT22;65739;51.482;5.702;2023-04-19T13:19:16;18.30;88.20
76787;DHT22;65739;51.482;5.702;2023-04-19T13:21:41;18.50;88.20
76787;DHT22;65739;51.482;5.702;2023-04-19T13:24:07;18.10;87.10
76787;DHT22;65739;51.482;5.702;2023-04-19T13:26:32;17.90;85.80
76787;DHT22;65739;51.482;5.702;2023-04-19T13:29:01;17.90;85.50
76787;DHT22;65739;51.482;5.702;2023-04-19T13:31:26;18.20;89.90
76787;DHT22;65739;51.482;5.702;2023-04-19T13:33:52;18.30;89.20
76787;DHT22;65739;51.482;5.702;2023-04-19T13:36:18;18.40;88.30
76787;DHT22;65739;51.482;5.702;2023-04-19T13:38:45;18.40;86.70
76787;DHT22;65739;51.482;5.702;2023-04-19T13:41:11;18.30;86.50
76787;DHT22;65739;51.482;5.702;2023-04-19T13:43:36;17.80;86.90
76787;DHT22;65739;51.482;5.702;2023-04-19T13:46:02;18.00;87.90
76787;DHT22;65739;51.482;5.702;2023-04-19T13:48:28;18.20;86.00
76787;DHT22;65739;51.482;5.702;2023-04-19T13:50:57;18.20;85.40
76787;DHT22;65739;51.482;5.702;2023-04-19T13:53:25;18.20;87.20
76787;DHT22;65739;51.482;5.702;2023-04-19T13:55:51;18.10;85.60
76787;DHT22;65739;51.482;5.702;2023-04-19T13:58:17;17.90;86.90
76787;DHT22;65739;51.482;5.702;2023-04-19T14:00:43;18.40;89.10
76787;DHT22;65739;51.482;5.702;2023-04-19T14:03:09;18.70;88.60
76787;DHT22;65739;51.482;5.702;2023-04-19T14:05:35;18.60;87.90
76787;DHT22;65739;51.482;5.702;2023-04-19T14:08:00;18.50;88.70
76787;DHT22;65739;51.482;5.702;2023-04-19T14:10:26;18.30;89.60
76787;DHT22;65739;51.482;5.702;2023-04-19T14:12:51;18.40;86.80
76787;DHT22;65739;51.482;5.702;2023-04-19T14:15:20;18.20;86.50
76787;DHT22;65739;51.482;5.702;2023-04-19T14:17:48;17.90;85.90
76787;DHT22;65739;51.482;5.702;2023-04-19T14:20:13;17.80;87.10
76787;DHT22;65739;51.482;5.702;2023-04-19T14:22:39;17.80;87.30
76787;DHT22;65739;51.482;5.702;2023-04-19T14:25:05;18.00;87.20
76787;DHT22;65739;51.482;5.702;2023-04-19T14:27:31;18.20;90.40
76787;DHT22;65739;51.482;5.702;2023-04-19T14:29:56;18.40;87.80
76787;DHT22;65739;51.482;5.702;2023-04-19T14:32:22;18.30;88.20
76787;DHT22;65739;51.482;5.702;2023-04-19T14:34:48;18.40;88.10
76787;DHT22;65739;51.482;5.702;2023-04-19T14:37:13;18.30;86.60
76787;DHT22;65739;51.482;5.702;2023-04-19T14:39:39;18.20;86.70
76787;DHT22;65739;51.482;5.702;2023-04-19T14:42:04;18.00;87.90
76787;DHT22;65739;51.482;5.702;2023-04-19T14:44:30;18.00;88.50
76787;DHT22;65739;51.482;5.702;2023-04-19T14:46:56;17.90;88.90
76787;DHT22;65739;51.482;5.702;2023-04-19T14:49:22;18.20;90.20
76787;DHT22;65739;51.482;5.702;2023-04-19T14:51:47;18.50;90.20
76787;DHT22;65739;51.482;5.702;2023-04-19T14:54:13;18.40;90.20
76787;DHT22;65739;51.482;5.702;2023-04-19T14:56:38;18.80;90.40
76787;DHT22;65739;51.482;5.702;2023-04-19T14:59:05;18.40;88.90
76787;DHT22;65739;51.482;5.702;2023-04-19T15:01:32;18.00;89.20
76787;DHT22;65739;51.482;5.702;2023-04-19T15:03:58;18.00;91.00
76787;DHT22;65739;51.482;5.702;2023-04-19T15:06:24;18.00;90.10
76787;DHT22;65739;51.482;5.702;2023-04-19T15:08:49;18.00;90.20
76787;DHT22;65739;51.482;5.702;2023-04-19T15:11:15;18.30;90.40
76787;DHT22;65739;51.482;5.702;2023-04-19T15:13:41;18.70;90.10
76787;DHT22;65739;51.482;5.702;2023-04-19T15:16:06;18.60;90.70
76787;DHT22;65739;51.482;5.702;2023-04-19T15:18:33;19.00;90.30
76787;DHT22;65739;51.482;5.702;2023-04-19T15:20:59;19.10;90.40
76787;DHT22;65739;51.482;5.702;2023-04-19T15:23:24;19.40;90.00
76787;DHT22;65739;51.482;5.702;2023-04-19T15:25:51;19.00;89.70
76787;DHT22;65739;51.482;5.702;2023-04-19T15:28:16;19.00;89.10
76787;DHT22;65739;51.482;5.702;2023-04-19T15:30:42;19.20;90.10
76787;DHT22;65739;51.482;5.702;2023-04-19T15:33:08;19.40;89.90
76787;DHT22;65739;51.482;5.702;2023-04-19T15:35:33;19.00;89.40
76787;DHT22;65739;51.482;5.702;2023-04-19T15:37:59;18.80;90.00
76787;DHT22;65739;51.482;5.702;2023-04-19T15:40:25;18.90;90.30
76787;DHT22;65739;51.482;5.702;2023-04-19T15:42:52;19.00;88.70